createdAt,value
2018-05-06T00:00:40.064Z,13.60
2018-05-06T00:03:07.703Z,13.60
2018-05-06T00:05:35.287Z,13.50
2018-05-06T00:08:02.862Z,13.50
2018-05-06T00:10:30.413Z,13.40
2018-05-06T00:12:57.991Z,13.30
2018-05-06T00:15:25.613Z,13.20
2018-05-06T00:17:53.173Z,13.00
2018-05-06T00:20:20.722Z,13.00
2018-05-06T00:22:48.658Z,13.00
2018-05-06T00:25:16.259Z,13.00
2018-05-06T00:27:43.847Z,13.00
2018-05-06T00:30:11.472Z,13.00
2018-05-06T00:32:39.440Z,12.90
2018-05-06T00:35:07.419Z,12.90
2018-05-06T00:37:34.946Z,12.90
2018-05-06T00:40:02.593Z,12.80
2018-05-06T00:42:30.159Z,12.70
2018-05-06T00:44:57.783Z,12.60
2018-05-06T00:47:25.366Z,12.50
2018-05-06T00:49:52.954Z,12.60
2018-05-06T00:52:20.887Z,12.60
2018-05-06T00:54:48.459Z,12.60
2018-05-06T00:57:15.999Z,12.60
2018-05-06T00:59:43.575Z,12.60
2018-05-06T01:02:11.122Z,12.50
2018-05-06T01:04:38.738Z,12.50
2018-05-06T01:07:06.308Z,12.40
2018-05-06T01:09:33.899Z,12.30
2018-05-06T01:12:01.444Z,12.30
2018-05-06T01:14:29.108Z,12.20
2018-05-06T01:16:56.639Z,12.20
2018-05-06T01:19:24.183Z,12.20
2018-05-06T01:21:51.745Z,12.10
2018-05-06T01:24:19.314Z,12.00
2018-05-06T01:26:46.893Z,11.90
2018-05-06T01:29:14.448Z,12.00
2018-05-06T01:31:42.027Z,12.00
2018-05-06T01:34:09.599Z,12.00
2018-05-06T01:36:37.190Z,12.00
2018-05-06T01:39:04.754Z,12.00
2018-05-06T01:41:32.330Z,11.90
2018-05-06T01:43:59.905Z,11.80
2018-05-06T01:46:27.475Z,11.80
2018-05-06T01:48:55.047Z,11.70
2018-05-06T01:51:22.670Z,11.60
2018-05-06T01:53:50.237Z,11.60
2018-05-06T01:56:17.840Z,11.60
2018-05-06T01:58:45.450Z,11.60
2018-05-06T02:01:12.990Z,11.50
2018-05-06T02:03:40.573Z,11.50
2018-05-06T02:06:08.185Z,11.40
2018-05-06T02:08:35.729Z,11.40
2018-05-06T02:11:03.309Z,11.40
2018-05-06T02:13:30.847Z,11.40
2018-05-06T02:15:58.821Z,11.40
2018-05-06T02:18:26.398Z,11.40
2018-05-06T02:20:53.977Z,11.30
2018-05-06T02:23:21.555Z,11.40
2018-05-06T02:25:49.101Z,11.50
2018-05-06T02:28:16.688Z,11.40
2018-05-06T02:30:44.283Z,11.40
2018-05-06T02:33:11.853Z,11.40
2018-05-06T02:35:39.404Z,11.40
2018-05-06T02:38:07.025Z,11.30
2018-05-06T02:40:34.567Z,11.20
2018-05-06T02:43:02.137Z,11.10
2018-05-06T02:45:29.730Z,11.10
2018-05-06T02:47:57.297Z,11.00
2018-05-06T02:50:24.842Z,11.00
2018-05-06T02:52:52.423Z,10.90
2018-05-06T02:55:20.039Z,10.90
2018-05-06T02:57:47.581Z,10.80
2018-05-06T03:00:15.126Z,10.80
2018-05-06T03:02:42.757Z,10.80
2018-05-06T03:05:10.328Z,10.80
2018-05-06T03:07:37.906Z,10.70
2018-05-06T03:10:05.460Z,10.70
2018-05-06T03:12:33.068Z,10.50
2018-05-06T03:15:01.032Z,10.50
2018-05-06T03:17:28.603Z,10.50
2018-05-06T03:19:56.141Z,10.50
2018-05-06T03:22:23.778Z,10.50
2018-05-06T03:24:51.367Z,10.50
2018-05-06T03:27:19.359Z,10.50
2018-05-06T03:29:46.912Z,10.60
2018-05-06T03:32:14.495Z,10.50
2018-05-06T03:34:42.119Z,10.60
2018-05-06T03:37:09.742Z,10.60
2018-05-06T03:39:37.339Z,10.60
2018-05-06T03:42:04.935Z,10.60
2018-05-06T03:44:32.491Z,10.50
2018-05-06T03:47:00.065Z,10.50
2018-05-06T03:49:27.633Z,10.50
2018-05-06T03:51:55.185Z,10.50
2018-05-06T03:54:22.807Z,10.50
2018-05-06T03:57:13.205Z,10.40
2018-05-06T03:59:52.403Z,10.30
2018-05-06T04:05:17.535Z,10.10
2018-05-06T04:07:45.084Z,10.00
2018-05-06T04:10:12.679Z,9.90
2018-05-06T04:12:40.239Z,9.90
2018-05-06T04:15:07.827Z,9.90
2018-05-06T04:17:35.381Z,9.90
2018-05-06T04:20:02.962Z,10.00
2018-05-06T04:22:30.882Z,10.10
2018-05-06T04:24:58.520Z,10.10
2018-05-06T04:27:26.137Z,10.20
2018-05-06T04:29:53.742Z,10.30
2018-05-06T04:32:21.303Z,10.40
2018-05-06T04:34:48.837Z,10.40
2018-05-06T04:37:16.456Z,10.40
2018-05-06T04:39:44.119Z,10.50
2018-05-06T04:42:11.653Z,10.60
2018-05-06T04:44:39.209Z,10.60
2018-05-06T04:47:06.757Z,10.60
2018-05-06T04:49:34.365Z,10.70
2018-05-06T04:52:01.895Z,10.60
2018-05-06T04:54:29.864Z,10.70
2018-05-06T04:56:57.398Z,10.70
2018-05-06T04:59:24.988Z,10.70
2018-05-06T05:01:52.523Z,10.70
2018-05-06T05:04:20.141Z,10.80
2018-05-06T05:06:48.106Z,10.90
2018-05-06T05:09:16.094Z,10.90
2018-05-06T05:11:43.615Z,11.00
2018-05-06T05:14:11.189Z,11.00
2018-05-06T05:16:39.161Z,11.10
2018-05-06T05:19:06.752Z,11.20
2018-05-06T05:21:34.301Z,11.20
2018-05-06T05:24:01.873Z,11.20
2018-05-06T05:26:29.406Z,11.20
2018-05-06T05:28:56.942Z,11.30
2018-05-06T05:31:24.519Z,11.40
2018-05-06T05:33:52.053Z,11.50
2018-05-06T05:36:19.670Z,11.70
2018-05-06T05:38:47.223Z,11.80
2018-05-06T05:41:14.793Z,12.00
2018-05-06T05:43:42.338Z,12.10
2018-05-06T05:46:09.884Z,12.20
2018-05-06T05:48:37.472Z,12.40
2018-05-06T05:51:05.082Z,12.50
2018-05-06T05:53:32.705Z,12.70
2018-05-06T05:56:00.355Z,12.80
2018-05-06T05:58:27.892Z,12.90
2018-05-06T06:00:55.506Z,13.10
2018-05-06T06:03:23.074Z,13.20
2018-05-06T06:05:50.711Z,13.40
2018-05-06T06:08:18.278Z,13.50
2018-05-06T06:10:45.840Z,13.60
2018-05-06T06:13:13.389Z,13.70
2018-05-06T06:15:41.010Z,13.90
2018-05-06T06:18:08.544Z,13.90
2018-05-06T06:20:36.120Z,14.00
2018-05-06T06:23:03.704Z,14.20
2018-05-06T06:25:31.336Z,14.30
2018-05-06T06:27:58.861Z,14.50
2018-05-06T06:30:26.885Z,14.80
2018-05-06T06:32:54.496Z,14.80
2018-05-06T06:35:22.034Z,14.90
2018-05-06T06:37:49.650Z,15.00
2018-05-06T06:40:17.453Z,15.20
2018-05-06T06:42:45.064Z,15.30
2018-05-06T06:45:12.637Z,15.50
2018-05-06T06:47:40.184Z,15.60
2018-05-06T06:50:07.731Z,15.80
2018-05-06T06:52:35.305Z,16.00
2018-05-06T06:55:02.899Z,16.30
2018-05-06T06:57:30.498Z,16.50
2018-05-06T06:59:58.118Z,16.80
2018-05-06T07:02:25.685Z,17.00
2018-05-06T07:04:53.631Z,17.30
2018-05-06T07:07:21.204Z,17.30
2018-05-06T07:09:48.729Z,17.60
2018-05-06T07:12:16.327Z,18.00
2018-05-06T07:14:44.316Z,18.40
2018-05-06T07:17:11.906Z,18.40
2018-05-06T07:19:39.425Z,18.70
2018-05-06T07:22:07.016Z,18.90
2018-05-06T07:24:34.606Z,19.20
2018-05-06T07:27:02.222Z,19.50
2018-05-06T07:29:29.741Z,19.60
2018-05-06T07:31:57.549Z,19.90
2018-05-06T07:34:25.086Z,19.90
2018-05-06T07:36:52.748Z,20.20
2018-05-06T07:39:20.422Z,20.40
2018-05-06T07:41:48.019Z,20.60
2018-05-06T07:44:15.601Z,20.80
2018-05-06T07:46:43.258Z,21.10
2018-05-06T07:49:11.079Z,21.20
2018-05-06T07:51:38.909Z,21.20
2018-05-06T07:54:06.541Z,21.30
2018-05-06T07:56:34.118Z,21.30
2018-05-06T07:59:01.690Z,21.30
2018-05-06T08:01:29.263Z,21.40
2018-05-06T08:03:56.822Z,21.60
2018-05-06T08:06:24.354Z,22.00
2018-05-06T08:08:52.002Z,22.10
2018-05-06T08:11:19.531Z,22.20
2018-05-06T08:13:47.160Z,22.20
2018-05-06T08:16:14.778Z,22.30
2018-05-06T08:18:42.261Z,22.50
2018-05-06T08:21:09.880Z,22.90
2018-05-06T08:23:37.463Z,23.10
2018-05-06T08:26:05.437Z,23.40
2018-05-06T08:28:33.102Z,23.40
2018-05-06T08:31:01.098Z,23.90
2018-05-06T08:33:28.830Z,23.90
2018-05-06T08:35:56.408Z,24.00
2018-05-06T08:38:23.996Z,24.10
2018-05-06T08:40:51.529Z,24.30
2018-05-06T08:43:19.114Z,24.70
2018-05-06T08:45:46.785Z,24.70
2018-05-06T08:48:14.693Z,24.80
2018-05-06T08:50:42.242Z,24.80
2018-05-06T08:53:10.221Z,25.00
2018-05-06T08:55:37.786Z,25.00
2018-05-06T08:58:05.437Z,25.10
2018-05-06T09:00:32.990Z,25.40
2018-05-06T09:03:00.587Z,25.90
2018-05-06T09:05:28.155Z,26.10
2018-05-06T09:07:56.003Z,26.30
2018-05-06T09:10:23.877Z,26.50
2018-05-06T09:12:51.909Z,26.60
2018-05-06T09:15:19.464Z,26.60
2018-05-06T09:17:47.029Z,26.80
2018-05-06T09:20:14.595Z,26.80
2018-05-06T09:22:42.155Z,26.90
2018-05-06T09:25:09.799Z,26.70
2018-05-06T09:27:37.387Z,26.40
2018-05-06T09:30:04.977Z,26.50
2018-05-06T09:32:32.532Z,26.80
2018-05-06T09:35:00.159Z,26.80
2018-05-06T09:37:27.700Z,27.10
2018-05-06T09:39:55.239Z,27.30
2018-05-06T09:42:23.942Z,27.90
2018-05-06T09:44:51.524Z,27.90
2018-05-06T09:47:19.113Z,27.80
2018-05-06T09:49:46.677Z,27.70
2018-05-06T09:52:14.423Z,28.20
2018-05-06T09:54:42.613Z,28.30
2018-05-06T09:57:10.201Z,28.40
2018-05-06T09:59:37.790Z,29.00
2018-05-06T10:02:05.309Z,28.80
2018-05-06T10:04:32.902Z,29.10
2018-05-06T10:07:00.435Z,29.30
2018-05-06T10:09:27.993Z,29.70
2018-05-06T10:11:55.545Z,30.00
2018-05-06T10:14:23.171Z,30.40
2018-05-06T10:16:50.721Z,30.70
2018-05-06T10:19:19.031Z,30.40
2018-05-06T10:21:47.045Z,30.40
2018-05-06T10:24:14.692Z,30.40
2018-05-06T10:26:42.271Z,29.70
2018-05-06T10:29:09.827Z,28.90
2018-05-06T10:31:37.451Z,29.00
2018-05-06T10:34:05.373Z,30.10
2018-05-06T10:36:32.946Z,30.10
2018-05-06T10:39:00.505Z,30.30
2018-05-06T10:41:28.109Z,30.10
2018-05-06T10:43:55.687Z,30.10
2018-05-06T10:46:23.214Z,30.60
2018-05-06T10:48:50.801Z,30.40
2018-05-06T10:51:18.385Z,30.80
2018-05-06T10:53:45.913Z,31.00
2018-05-06T10:56:13.455Z,31.10
2018-05-06T10:58:41.024Z,30.70
2018-05-06T11:01:08.569Z,30.60
2018-05-06T11:03:36.338Z,30.60
2018-05-06T11:06:04.199Z,30.50
2018-05-06T11:08:32.049Z,30.50
2018-05-06T11:10:59.673Z,30.50
2018-05-06T11:13:27.585Z,30.70
2018-05-06T11:15:55.598Z,30.90
2018-05-06T11:18:23.334Z,31.20
2018-05-06T11:20:50.975Z,30.80
2018-05-06T11:23:18.524Z,30.50
2018-05-06T11:25:46.104Z,30.50
2018-05-06T11:28:13.699Z,30.40
2018-05-06T11:30:41.319Z,30.50
2018-05-06T11:33:08.995Z,30.20
2018-05-06T11:35:36.831Z,30.00
2018-05-06T11:38:04.522Z,30.30
2018-05-06T11:40:32.316Z,30.50
2018-05-06T11:42:59.947Z,30.30
2018-05-06T11:45:27.477Z,30.10
2018-05-06T11:47:55.031Z,29.80
2018-05-06T11:50:22.610Z,29.90
2018-05-06T11:52:50.526Z,29.80
2018-05-06T11:55:18.130Z,29.80
2018-05-06T11:57:45.675Z,30.10
2018-05-06T12:00:13.222Z,30.40
2018-05-06T12:02:40.798Z,30.70
2018-05-06T12:05:08.342Z,31.00
2018-05-06T12:07:35.941Z,30.80
2018-05-06T12:10:03.482Z,30.50
2018-05-06T12:12:31.047Z,30.70
2018-05-06T12:14:58.574Z,30.90
2018-05-06T12:17:26.098Z,30.90
2018-05-06T12:19:53.682Z,30.90
2018-05-06T12:22:21.257Z,30.60
2018-05-06T12:24:49.159Z,30.30
2018-05-06T12:27:16.722Z,30.60
2018-05-06T12:29:44.309Z,30.90
2018-05-06T12:32:11.845Z,30.70
2018-05-06T12:34:40.437Z,30.60
2018-05-06T12:37:08.078Z,30.50
2018-05-06T12:39:35.657Z,30.80
2018-05-06T12:42:03.213Z,31.10
2018-05-06T12:44:30.822Z,30.80
2018-05-06T12:46:58.337Z,30.60
2018-05-06T12:49:25.905Z,30.60
2018-05-06T12:51:53.833Z,30.60
2018-05-06T12:54:21.412Z,30.90
2018-05-06T12:56:49.106Z,31.30
2018-05-06T12:59:16.824Z,31.90
2018-05-06T13:01:44.352Z,32.50
2018-05-06T13:04:12.036Z,33.00
2018-05-06T13:06:41.635Z,33.20
2018-05-06T13:09:09.279Z,33.10
2018-05-06T13:11:36.880Z,33.50
2018-05-06T13:14:04.887Z,33.60
2018-05-06T13:16:32.503Z,34.20
2018-05-06T13:19:00.091Z,34.40
2018-05-06T13:21:27.714Z,35.20
2018-05-06T13:23:55.398Z,35.80
2018-05-06T13:26:22.955Z,36.30
2018-05-06T13:28:51.858Z,36.60
2018-05-06T13:31:19.810Z,36.70
2018-05-06T13:33:47.422Z,36.70
2018-05-06T13:36:15.140Z,37.50
2018-05-06T13:38:42.745Z,37.90
2018-05-06T13:41:10.359Z,37.90
2018-05-06T13:43:38.857Z,38.50
2018-05-06T13:46:06.898Z,39.90
2018-05-06T13:48:34.996Z,39.90
2018-05-06T13:51:02.634Z,40.30
2018-05-06T13:53:30.363Z,40.30
2018-05-06T13:55:58.162Z,41.10
2018-05-06T13:58:25.723Z,42.00
2018-05-06T14:00:53.276Z,41.60
2018-05-06T14:03:20.832Z,42.10
2018-05-06T14:05:48.452Z,42.40
2018-05-06T14:08:16.016Z,41.40
2018-05-06T14:10:43.612Z,41.60
2018-05-06T14:13:14.589Z,40.80
2018-05-06T14:15:42.250Z,40.30
2018-05-06T14:18:10.336Z,39.90
2018-05-06T14:20:38.224Z,39.80
2018-05-06T14:23:05.900Z,39.50
2018-05-06T14:25:33.626Z,39.90
2018-05-06T14:28:01.188Z,40.40
2018-05-06T14:30:28.774Z,40.70
2018-05-06T14:32:56.444Z,40.90
2018-05-06T14:35:24.092Z,41.70
2018-05-06T14:37:51.624Z,42.30
2018-05-06T14:40:19.157Z,42.20
2018-05-06T14:42:46.731Z,41.80
2018-05-06T14:45:14.276Z,42.00
2018-05-06T14:47:53.635Z,41.80
2018-05-06T14:50:29.124Z,42.20
2018-05-06T14:52:56.685Z,41.80
2018-05-06T14:55:24.682Z,41.10
2018-05-06T14:57:52.230Z,41.10
2018-05-06T15:00:19.964Z,41.60
2018-05-06T15:02:47.534Z,41.90
2018-05-06T15:05:15.093Z,41.70
2018-05-06T15:07:43.071Z,41.50
2018-05-06T15:10:11.050Z,41.90
2018-05-06T15:12:38.609Z,41.90
2018-05-06T15:15:06.186Z,41.80
2018-05-06T15:17:33.812Z,41.70
2018-05-06T15:20:01.384Z,41.50
2018-05-06T15:22:28.980Z,41.60
2018-05-06T15:24:56.500Z,42.30
2018-05-06T15:27:24.082Z,42.00
2018-05-06T15:29:51.627Z,41.50
2018-05-06T15:32:19.216Z,41.70
2018-05-06T15:34:46.838Z,41.80
2018-05-06T15:37:14.426Z,42.40
2018-05-06T15:39:41.960Z,42.60
2018-05-06T15:42:09.511Z,42.40
2018-05-06T15:44:37.087Z,41.70
2018-05-06T15:47:04.626Z,41.70
2018-05-06T15:49:32.239Z,42.10
2018-05-06T15:51:59.777Z,43.20
2018-05-06T15:54:27.401Z,44.00
2018-05-06T15:56:54.948Z,44.10
2018-05-06T15:59:22.522Z,43.60
2018-05-06T16:02:01.794Z,43.00
2018-05-06T16:04:29.388Z,42.80
2018-05-06T16:06:57.383Z,43.60
2018-05-06T16:09:24.927Z,43.60
2018-05-06T16:11:52.895Z,43.00
2018-05-06T16:14:20.491Z,43.00
2018-05-06T16:16:48.046Z,42.30
2018-05-06T16:19:15.627Z,42.00
2018-05-06T16:21:43.163Z,41.90
2018-05-06T16:24:10.758Z,42.60
2018-05-06T16:26:38.349Z,42.70
2018-05-06T16:29:05.945Z,42.30
2018-05-06T16:31:33.499Z,42.00
2018-05-06T16:34:01.105Z,42.10
2018-05-06T16:36:28.646Z,42.10
2018-05-06T16:38:56.256Z,41.60
2018-05-06T16:41:23.825Z,40.90
2018-05-06T16:43:51.365Z,41.20
2018-05-06T16:46:18.892Z,41.00
2018-05-06T16:48:46.470Z,40.00
2018-05-06T16:51:14.412Z,39.80
2018-05-06T16:53:48.894Z,39.50
2018-05-06T16:56:16.470Z,38.50
2018-05-06T16:58:44.086Z,38.30
2018-05-06T17:01:11.705Z,38.90
2018-05-06T17:03:39.295Z,38.80
2018-05-06T17:06:06.839Z,38.30
2018-05-06T17:08:34.373Z,37.70
2018-05-06T17:11:02.060Z,37.70
2018-05-06T17:13:29.634Z,37.90
2018-05-06T17:15:57.230Z,37.60
2018-05-06T17:18:24.783Z,37.30
2018-05-06T17:20:52.751Z,36.40
2018-05-06T17:23:20.291Z,36.40
2018-05-06T17:25:47.905Z,36.50
2018-05-06T17:28:15.441Z,36.10
2018-05-06T17:30:43.063Z,35.60
2018-05-06T17:33:10.660Z,34.80
2018-05-06T17:35:38.211Z,34.60
2018-05-06T17:38:06.070Z,34.30
2018-05-06T17:40:34.254Z,34.40
2018-05-06T17:43:03.127Z,34.20
2018-05-06T17:45:30.742Z,34.20
2018-05-06T17:47:58.310Z,33.90
2018-05-06T17:50:26.219Z,33.90
2018-05-06T17:52:53.823Z,34.10
2018-05-06T17:55:21.415Z,34.00
2018-05-06T17:57:48.960Z,33.70
2018-05-06T18:00:16.595Z,33.40
2018-05-06T18:02:44.140Z,32.80
2018-05-06T18:05:11.740Z,32.20
2018-05-06T18:07:41.266Z,31.70
2018-05-06T18:10:08.807Z,30.50
2018-05-06T18:12:36.383Z,29.20
2018-05-06T18:15:03.953Z,28.20
2018-05-06T18:17:31.516Z,27.50
2018-05-06T18:19:59.049Z,26.90
2018-05-06T18:22:26.646Z,26.50
2018-05-06T18:24:54.227Z,26.10
2018-05-06T18:27:22.227Z,25.30
2018-05-06T18:29:49.795Z,25.30
2018-05-06T18:32:17.510Z,24.90
2018-05-06T18:34:45.033Z,24.40
2018-05-06T18:37:12.938Z,23.90
2018-05-06T18:39:40.470Z,23.40
2018-05-06T18:42:08.043Z,23.00
2018-05-06T18:44:35.611Z,22.70
2018-05-06T18:47:03.246Z,22.40
2018-05-06T18:49:30.772Z,22.20
2018-05-06T18:51:58.345Z,22.00
2018-05-06T18:54:25.929Z,21.70
2018-05-06T18:56:54.413Z,21.50
2018-05-06T18:59:22.133Z,21.20
2018-05-06T19:01:49.719Z,20.80
2018-05-06T19:04:17.255Z,20.60
2018-05-06T19:06:44.873Z,20.20
2018-05-06T19:09:12.806Z,19.90
2018-05-06T19:11:40.419Z,19.90
2018-05-06T19:14:08.015Z,19.80
2018-05-06T19:16:35.580Z,19.80
2018-05-06T19:19:03.165Z,19.80
2018-05-06T19:21:32.105Z,19.70
2018-05-06T19:24:01.200Z,19.70
2018-05-06T19:26:28.967Z,19.60
2018-05-06T19:28:56.570Z,19.60
2018-05-06T19:31:24.138Z,19.50
2018-05-06T19:33:53.958Z,19.40
2018-05-06T19:36:21.570Z,19.30
2018-05-06T19:38:49.127Z,19.20
2018-05-06T19:41:16.687Z,19.10
2018-05-06T19:43:44.281Z,19.10
2018-05-06T19:46:11.841Z,19.00
2018-05-06T19:48:39.454Z,18.90
2018-05-06T19:51:06.977Z,18.80
2018-05-06T19:53:34.541Z,18.70
2018-05-06T19:56:02.085Z,18.60
2018-05-06T19:58:29.676Z,18.50
2018-05-06T20:00:57.222Z,18.40
2018-05-06T20:03:24.775Z,18.30
2018-05-06T20:05:52.317Z,18.20
2018-05-06T20:08:19.919Z,18.00
2018-05-06T20:10:47.457Z,18.00
2018-05-06T20:13:15.035Z,17.90
2018-05-06T20:15:42.610Z,17.90
2018-05-06T20:18:10.163Z,17.80
2018-05-06T20:20:37.689Z,17.70
2018-05-06T20:23:08.104Z,17.60
2018-05-06T20:25:35.678Z,17.50
2018-05-06T20:28:03.265Z,17.50
2018-05-06T20:30:30.836Z,17.40
2018-05-06T20:32:58.524Z,17.30
2018-05-06T20:35:26.136Z,17.10
2018-05-06T20:37:53.715Z,16.90
2018-05-06T20:40:21.717Z,16.60
2018-05-06T20:42:49.264Z,16.60
2018-05-06T20:45:16.879Z,16.50
2018-05-06T20:47:44.419Z,16.20
2018-05-06T20:50:11.986Z,16.10
2018-05-06T20:52:39.539Z,16.00
2018-05-06T20:55:07.154Z,15.90
2018-05-06T20:57:34.756Z,15.90
2018-05-06T21:00:02.361Z,15.80
2018-05-06T21:02:29.925Z,15.40
2018-05-06T21:04:57.935Z,14.90
2018-05-06T21:07:25.479Z,14.90
2018-05-06T21:09:53.046Z,15.00
2018-05-06T21:12:20.615Z,15.10
2018-05-06T21:14:48.163Z,15.10
2018-05-06T21:17:15.697Z,15.10
2018-05-06T21:19:43.683Z,15.10
2018-05-06T21:22:11.234Z,15.10
2018-05-06T21:24:38.777Z,15.00
2018-05-06T21:27:06.401Z,15.00
2018-05-06T21:29:34.015Z,14.90
2018-05-06T21:32:01.561Z,14.90
2018-05-06T21:34:29.156Z,14.90
2018-05-06T21:36:56.752Z,14.80
2018-05-06T21:39:24.332Z,14.70
2018-05-06T21:41:51.901Z,14.60
2018-05-06T21:44:19.721Z,14.50
2018-05-06T21:46:47.329Z,14.40
2018-05-06T21:49:15.310Z,14.40
2018-05-06T21:51:42.837Z,14.30
2018-05-06T21:54:10.459Z,14.30
2018-05-06T21:56:37.995Z,14.30
2018-05-06T21:59:05.660Z,14.20
2018-05-06T22:01:33.226Z,14.20
2018-05-06T22:04:00.789Z,14.10
2018-05-06T22:06:28.507Z,14.00
2018-05-06T22:08:56.101Z,14.00
2018-05-06T22:11:23.752Z,13.90
2018-05-06T22:13:51.375Z,13.70
2018-05-06T22:16:18.960Z,13.60
2018-05-06T22:18:46.529Z,13.50
2018-05-06T22:21:14.166Z,13.40
2018-05-06T22:23:41.739Z,13.40
2018-05-06T22:26:09.820Z,13.30
2018-05-06T22:28:37.487Z,13.30
2018-05-06T22:31:05.056Z,13.30
2018-05-06T22:33:32.637Z,13.30
2018-05-06T22:36:00.213Z,13.20
2018-05-06T22:38:27.764Z,13.00
2018-05-06T22:40:55.777Z,12.80
2018-05-06T22:43:23.327Z,12.80
2018-05-06T22:45:50.920Z,12.60
2018-05-06T22:48:18.526Z,12.60
2018-05-06T22:50:46.209Z,12.60
2018-05-06T22:53:13.854Z,12.60
2018-05-06T22:55:41.579Z,12.60
2018-05-06T22:58:09.161Z,12.60
2018-05-06T23:00:36.785Z,12.60
2018-05-06T23:03:04.541Z,12.60
2018-05-06T23:05:32.327Z,12.40
2018-05-06T23:08:00.001Z,12.30
2018-05-06T23:10:27.652Z,12.20
2018-05-06T23:12:55.619Z,12.20
2018-05-06T23:15:23.303Z,12.20
2018-05-06T23:17:50.928Z,12.20
2018-05-06T23:20:18.638Z,12.10
2018-05-06T23:22:46.377Z,12.10
2018-05-06T23:25:14.085Z,11.90
2018-05-06T23:27:41.702Z,11.80
2018-05-06T23:30:09.409Z,11.80
2018-05-06T23:32:37.026Z,11.80
2018-05-06T23:35:04.961Z,11.80
2018-05-06T23:37:32.620Z,11.70
2018-05-06T23:40:00.254Z,11.60
2018-05-06T23:42:27.828Z,11.50
2018-05-06T23:44:55.561Z,11.60
2018-05-06T23:47:23.143Z,11.50
2018-05-06T23:49:50.811Z,11.50
2018-05-06T23:52:18.435Z,11.40
2018-05-06T23:54:46.100Z,11.30
2018-05-06T23:57:13.688Z,11.30
2018-05-06T23:59:41.212Z,11.30
